createdAt,value
2019-03-19T00:11:45.077Z,22.80
2019-03-19T01:13:47.806Z,34.10
2019-03-19T01:22:26.943Z,40.80
2019-03-19T01:34:19.161Z,48.70
2019-03-19T02:00:52.229Z,21.10
2019-03-19T02:24:40.499Z,12.10
2019-03-19T03:50:15.006Z,95.10
2019-03-19T04:11:04.208Z,84.10
2019-03-19T04:28:52.788Z,71.60
2019-03-19T05:16:18.924Z,67.90
2019-03-19T05:48:51.957Z,61.60
2019-03-19T06:09:28.776Z,51.00
2019-03-19T06:30:03.693Z,46.70
2019-03-19T06:35:57.537Z,45.70
2019-03-19T07:50:39.308Z,99.90
2019-03-19T08:53:23.297Z,1.00
2019-03-19T12:07:03.955Z,1.00
2019-03-19T12:54:28.530Z,1.00
2019-03-19T13:30:27.537Z,1.00
2019-03-19T14:09:10.841Z,1.00
2019-03-19T14:38:59.174Z,1.00
2019-03-19T14:44:39.104Z,1.00
2019-03-19T15:08:12.002Z,1.00
2019-03-19T15:10:40.462Z,1.00
2019-03-19T15:13:09.001Z,1.00
2019-03-19T15:15:37.471Z,1.00
2019-03-19T15:18:06.137Z,1.00
2019-03-19T15:20:34.675Z,1.00
2019-03-19T15:23:03.180Z,1.00
2019-03-19T15:25:31.733Z,1.00
2019-03-19T15:28:00.486Z,1.00
2019-03-19T15:30:29.294Z,1.00
2019-03-19T15:32:58.137Z,1.00
2019-03-19T15:35:26.882Z,1.00
2019-03-19T15:37:55.857Z,1.00
2019-03-19T15:40:24.643Z,1.00
2019-03-19T15:43:01.100Z,1.00
2019-03-19T15:45:31.511Z,1.00
2019-03-19T15:48:00.260Z,1.00
2019-03-19T15:50:29.023Z,1.00
2019-03-19T15:52:57.804Z,1.00
2019-03-19T15:55:26.554Z,1.00
2019-03-19T15:57:55.393Z,1.00
2019-03-19T16:00:25.563Z,1.00
2019-03-19T16:02:54.371Z,1.00
2019-03-19T16:05:23.165Z,1.00
2019-03-19T16:07:51.900Z,1.00
2019-03-19T16:10:20.673Z,1.00
2019-03-19T16:12:49.520Z,1.00
2019-03-19T16:15:22.221Z,1.00
2019-03-19T16:17:51.007Z,1.00
2019-03-19T16:20:20.589Z,1.00
2019-03-19T16:22:49.348Z,1.00
2019-03-19T16:25:18.146Z,1.00
2019-03-19T16:27:46.976Z,1.00
2019-03-19T16:30:19.371Z,1.00
2019-03-19T16:32:48.482Z,1.00
2019-03-19T16:35:17.356Z,1.00
2019-03-19T16:37:46.104Z,1.00
2019-03-19T16:40:21.527Z,1.00
2019-03-19T16:42:50.332Z,1.00
2019-03-19T16:45:19.175Z,1.00
2019-03-19T16:47:47.955Z,1.00
2019-03-19T16:50:18.937Z,1.00
2019-03-19T16:52:52.064Z,1.00
2019-03-19T16:55:25.812Z,1.00
2019-03-19T16:57:58.527Z,1.00
2019-03-19T17:00:36.232Z,1.00
2019-03-19T17:03:09.685Z,1.00
2019-03-19T17:05:39.277Z,1.00
2019-03-19T17:08:08.149Z,1.00
2019-03-19T17:10:38.644Z,1.00
2019-03-19T17:13:07.497Z,1.00
2019-03-19T17:15:36.318Z,16.90
2019-03-19T17:18:05.284Z,43.90
2019-03-19T17:20:34.150Z,99.90
2019-03-19T17:23:02.895Z,99.90
2019-03-19T17:25:31.725Z,99.90
2019-03-19T17:28:00.990Z,99.90
2019-03-19T17:30:32.008Z,99.90
2019-03-19T17:33:00.921Z,99.90
2019-03-19T17:35:29.791Z,99.90
2019-03-19T17:37:58.625Z,99.90
2019-03-19T17:40:27.554Z,99.90
2019-03-19T17:42:56.339Z,99.90
2019-03-19T17:45:25.095Z,99.90
2019-03-19T17:47:53.923Z,99.90
2019-03-19T17:50:27.635Z,1.00
2019-03-19T17:52:57.226Z,1.00
2019-03-19T17:55:25.977Z,1.00
2019-03-19T17:57:54.760Z,1.00
2019-03-19T18:00:41.703Z,1.00
2019-03-19T18:03:10.458Z,1.00
2019-03-19T18:05:39.216Z,1.00
2019-03-19T18:08:08.169Z,1.00
2019-03-19T18:10:36.892Z,1.00
2019-03-19T18:13:06.773Z,1.00
2019-03-19T18:15:35.757Z,1.00
2019-03-19T18:18:05.541Z,1.00
2019-03-19T18:20:34.350Z,1.00
2019-03-19T18:23:03.128Z,99.90
2019-03-19T18:25:31.942Z,53.30
2019-03-19T18:28:00.987Z,99.90
2019-03-19T18:30:30.986Z,99.90
2019-03-19T18:32:59.748Z,99.90
2019-03-19T18:35:28.622Z,99.90
2019-03-19T18:37:57.389Z,1.00
2019-03-19T18:40:26.186Z,1.00
2019-03-19T18:42:54.983Z,1.00
2019-03-19T18:45:23.938Z,1.00
2019-03-19T18:47:52.704Z,99.90
2019-03-19T18:50:22.373Z,1.00
2019-03-19T18:52:51.518Z,27.50
2019-03-19T18:55:20.320Z,99.90
2019-03-19T18:57:49.135Z,99.90
2019-03-19T19:00:22.116Z,1.00
2019-03-19T19:02:51.321Z,1.00
2019-03-19T19:05:21.231Z,1.00
2019-03-19T19:07:49.963Z,1.00
2019-03-19T19:10:21.202Z,1.00
2019-03-19T19:12:49.498Z,1.00
2019-03-19T19:15:22.200Z,1.00
2019-03-19T19:17:50.951Z,99.90
2019-03-19T19:20:20.003Z,99.90
2019-03-19T19:22:48.898Z,1.00
2019-03-19T19:25:23.021Z,1.00
2019-03-19T19:27:51.805Z,1.00
2019-03-19T19:30:25.759Z,1.00
2019-03-19T19:33:01.531Z,1.00
2019-03-19T19:35:25.054Z,1.00
2019-03-19T19:37:53.821Z,17.50
2019-03-19T19:40:22.586Z,99.90
2019-03-19T19:42:51.325Z,99.90
2019-03-19T19:45:20.319Z,99.90
2019-03-19T19:47:49.072Z,99.90
2019-03-19T19:50:19.038Z,1.00
2019-03-19T19:52:47.789Z,1.00
2019-03-19T19:55:16.780Z,91.50
2019-03-19T19:57:45.613Z,1.00
2019-03-19T20:00:18.628Z,1.00
2019-03-19T20:02:47.384Z,99.90
2019-03-19T20:05:16.227Z,99.90
2019-03-19T20:07:45.027Z,30.70
2019-03-19T20:10:26.994Z,99.90
2019-03-19T20:12:55.781Z,1.00
2019-03-19T20:15:24.959Z,1.00
2019-03-19T20:17:53.801Z,99.90
2019-03-19T20:20:24.928Z,99.90
2019-03-19T20:22:53.702Z,99.90
2019-03-19T20:25:22.504Z,99.90
2019-03-19T20:27:51.270Z,1.00
2019-03-19T20:30:22.122Z,1.00
2019-03-19T20:32:50.871Z,1.00
2019-03-19T20:35:19.661Z,1.00
2019-03-19T20:37:48.405Z,99.90
2019-03-19T20:40:21.807Z,1.00
2019-03-19T20:42:50.586Z,1.00
2019-03-19T20:45:23.936Z,1.00
2019-03-19T20:47:52.791Z,1.00
2019-03-19T20:50:23.816Z,99.90
2019-03-19T20:52:52.597Z,1.00
2019-03-19T20:55:21.361Z,59.30
2019-03-19T20:57:50.268Z,1.00
2019-03-19T21:00:19.753Z,74.60
2019-03-19T21:02:48.920Z,99.90
2019-03-19T21:05:17.742Z,99.90
2019-03-19T21:07:48.013Z,99.90
2019-03-19T21:12:48.523Z,99.90
2019-03-19T21:15:26.019Z,99.90
2019-03-19T21:17:54.786Z,99.90
2019-03-19T21:20:23.667Z,1.00
2019-03-19T21:22:52.511Z,1.00
2019-03-19T21:25:21.275Z,1.00
2019-03-19T21:27:50.135Z,1.00
2019-03-19T21:30:24.153Z,1.00
2019-03-19T21:32:52.989Z,1.00
2019-03-19T21:35:25.645Z,1.00
2019-03-19T21:37:54.558Z,1.00
2019-03-19T21:40:23.441Z,1.00
2019-03-19T21:42:52.227Z,1.00
2019-03-19T21:45:22.075Z,1.00
2019-03-19T21:47:51.069Z,1.00
2019-03-19T21:50:23.766Z,1.00
2019-03-19T21:52:52.595Z,1.00
2019-03-19T21:55:21.521Z,1.00
2019-03-19T21:57:50.272Z,1.00
2019-03-19T22:00:20.262Z,99.90
2019-03-19T22:02:49.121Z,99.90
2019-03-19T22:05:17.887Z,99.90
2019-03-19T22:07:46.668Z,99.90
2019-03-19T22:10:16.928Z,1.00
2019-03-19T22:12:46.120Z,1.00
2019-03-19T22:15:22.699Z,1.00
2019-03-19T22:17:57.441Z,1.00
2019-03-19T22:20:35.825Z,1.00
2019-03-19T22:23:07.984Z,1.00
2019-03-19T22:25:36.927Z,1.00
2019-03-19T22:28:05.661Z,1.00
2019-03-19T22:30:34.437Z,1.00
2019-03-19T22:33:03.222Z,1.00
2019-03-19T22:35:31.961Z,1.00
2019-03-19T22:38:00.697Z,1.00
2019-03-19T22:40:29.440Z,1.00
2019-03-19T22:42:58.329Z,1.00
2019-03-19T22:45:27.063Z,1.00
2019-03-19T22:47:55.794Z,1.00
2019-03-19T22:50:24.945Z,1.00
2019-03-19T22:52:53.731Z,1.00
2019-03-19T22:55:29.040Z,1.00
2019-03-19T22:57:53.256Z,1.00
2019-03-19T23:00:36.899Z,1.00
2019-03-19T23:03:07.027Z,1.00
2019-03-19T23:05:36.413Z,1.00
2019-03-19T23:08:05.917Z,1.00
2019-03-19T23:10:35.292Z,1.00
2019-03-19T23:13:04.611Z,1.00
2019-03-19T23:15:33.484Z,1.00
2019-03-19T23:18:02.251Z,1.00
2019-03-19T23:20:31.005Z,1.00
2019-03-19T23:22:59.741Z,1.00
2019-03-19T23:25:28.485Z,1.00
2019-03-19T23:27:57.233Z,1.00
2019-03-19T23:30:26.138Z,1.00
2019-03-19T23:32:54.926Z,1.00
2019-03-19T23:35:23.765Z,1.00
2019-03-19T23:37:52.535Z,1.00
2019-03-19T23:40:21.978Z,1.00
2019-03-19T23:42:50.742Z,1.00
2019-03-19T23:45:19.491Z,1.00
2019-03-19T23:47:48.247Z,1.00
2019-03-19T23:50:20.678Z,1.00
2019-03-19T23:52:49.494Z,1.00
2019-03-19T23:55:18.258Z,1.00
2019-03-19T23:57:47.050Z,1.00
